sensor_id;sensor_type;location;lat;lon;timestamp;P1;durP1;ratioP1;P2;durP2;ratioP2
14209;SDS011;7188;56.070;12.698;2023-07-28T00:01:07;8.70;;;5.93;;
14209;SDS011;7188;56.070;12.698;2023-07-28T00:03:33;4.70;;;4.27;;
14209;SDS011;7188;56.070;12.698;2023-07-28T00:05:58;5.53;;;4.47;;
14209;SDS011;7188;56.070;12.698;2023-07-28T00:08:24;4.63;;;4.20;;
14209;SDS011;7188;56.070;12.698;2023-07-28T00:10:49;6.57;;;4.23;;
14209;SDS011;7188;56.070;12.698;2023-07-28T00:13:15;4.80;;;4.30;;
14209;SDS011;7188;56.070;12.698;2023-07-28T00:15:41;8.33;;;5.80;;
14209;SDS011;7188;56.070;12.698;2023-07-28T00:18:06;4.60;;;4.20;;
14209;SDS011;7188;56.070;12.698;2023-07-28T00:20:32;8.57;;;7.30;;
14209;SDS011;7188;56.070;12.698;2023-07-28T00:22:57;6.90;;;5.53;;
14209;SDS011;7188;56.070;12.698;2023-07-28T00:25:24;6.53;;;5.93;;
14209;SDS011;7188;56.070;12.698;2023-07-28T00:27:49;6.00;;;5.23;;
14209;SDS011;7188;56.070;12.698;2023-07-28T00:30:15;6.20;;;5.00;;
14209;SDS011;7188;56.070;12.698;2023-07-28T00:32:40;6.40;;;4.50;;
14209;SDS011;7188;56.070;12.698;2023-07-28T00:35:06;5.07;;;4.57;;
14209;SDS011;7188;56.070;12.698;2023-07-28T00:37:32;5.10;;;4.63;;
14209;SDS011;7188;56.070;12.698;2023-07-28T00:39:58;4.63;;;4.00;;
14209;SDS011;7188;56.070;12.698;2023-07-28T00:42:23;4.97;;;4.47;;
14209;SDS011;7188;56.070;12.698;2023-07-28T00:44:49;4.80;;;3.87;;
14209;SDS011;7188;56.070;12.698;2023-07-28T00:47:15;7.27;;;5.47;;
14209;SDS011;7188;56.070;12.698;2023-07-28T00:49:40;6.57;;;4.83;;
14209;SDS011;7188;56.070;12.698;2023-07-28T00:52:09;5.17;;;4.67;;
14209;SDS011;7188;56.070;12.698;2023-07-28T00:54:35;7.70;;;5.67;;
14209;SDS011;7188;56.070;12.698;2023-07-28T00:57:01;5.70;;;5.20;;
14209;SDS011;7188;56.070;12.698;2023-07-28T00:59:28;5.67;;;4.60;;
14209;SDS011;7188;56.070;12.698;2023-07-28T01:01:54;5.43;;;4.90;;
14209;SDS011;7188;56.070;12.698;2023-07-28T01:04:20;6.20;;;5.60;;
14209;SDS011;7188;56.070;12.698;2023-07-28T01:09:19;5.67;;;5.17;;
14209;SDS011;7188;56.070;12.698;2023-07-28T01:11:55;4.60;;;4.20;;
14209;SDS011;7188;56.070;12.698;2023-07-28T01:14:24;5.10;;;4.60;;
14209;SDS011;7188;56.070;12.698;2023-07-28T01:16:50;5.93;;;4.53;;
14209;SDS011;7188;56.070;12.698;2023-07-28T01:19:16;4.77;;;4.33;;
14209;SDS011;7188;56.070;12.698;2023-07-28T01:21:44;6.90;;;4.40;;
14209;SDS011;7188;56.070;12.698;2023-07-28T01:24:20;5.00;;;4.47;;
14209;SDS011;7188;56.070;12.698;2023-07-28T01:26:53;5.30;;;4.80;;
14209;SDS011;7188;56.070;12.698;2023-07-28T01:29:19;5.23;;;4.60;;
14209;SDS011;7188;56.070;12.698;2023-07-28T01:31:48;4.20;;;3.80;;
14209;SDS011;7188;56.070;12.698;2023-07-28T01:34:15;5.13;;;4.63;;
14209;SDS011;7188;56.070;12.698;2023-07-28T01:36:41;5.23;;;3.93;;
14209;SDS011;7188;56.070;12.698;2023-07-28T01:39:07;9.90;;;4.97;;
14209;SDS011;7188;56.070;12.698;2023-07-28T01:41:32;5.40;;;4.27;;
14209;SDS011;7188;56.070;12.698;2023-07-28T01:43:58;5.10;;;4.67;;
14209;SDS011;7188;56.070;12.698;2023-07-28T01:46:23;6.60;;;5.23;;
14209;SDS011;7188;56.070;12.698;2023-07-28T01:48:49;5.13;;;4.53;;
14209;SDS011;7188;56.070;12.698;2023-07-28T01:51:15;6.93;;;5.30;;
14209;SDS011;7188;56.070;12.698;2023-07-28T01:53:40;4.77;;;4.33;;
14209;SDS011;7188;56.070;12.698;2023-07-28T01:56:06;5.73;;;4.90;;
14209;SDS011;7188;56.070;12.698;2023-07-28T01:58:31;6.10;;;4.40;;
14209;SDS011;7188;56.070;12.698;2023-07-28T02:00:57;5.07;;;4.20;;
14209;SDS011;7188;56.070;12.698;2023-07-28T02:03:23;4.77;;;4.40;;
14209;SDS011;7188;56.070;12.698;2023-07-28T02:05:48;5.07;;;4.27;;
14209;SDS011;7188;56.070;12.698;2023-07-28T02:08:14;6.63;;;4.40;;
14209;SDS011;7188;56.070;12.698;2023-07-28T02:10:40;4.77;;;4.03;;
14209;SDS011;7188;56.070;12.698;2023-07-28T02:13:06;5.17;;;4.70;;
14209;SDS011;7188;56.070;12.698;2023-07-28T02:15:31;4.60;;;4.13;;
14209;SDS011;7188;56.070;12.698;2023-07-28T02:17:57;6.53;;;4.87;;
14209;SDS011;7188;56.070;12.698;2023-07-28T02:20:22;4.67;;;4.10;;
14209;SDS011;7188;56.070;12.698;2023-07-28T02:22:48;4.20;;;3.90;;
14209;SDS011;7188;56.070;12.698;2023-07-28T02:25:14;4.40;;;4.00;;
14209;SDS011;7188;56.070;12.698;2023-07-28T02:27:39;4.60;;;4.27;;
14209;SDS011;7188;56.070;12.698;2023-07-28T02:30:06;4.97;;;4.57;;
14209;SDS011;7188;56.070;12.698;2023-07-28T02:32:32;4.17;;;3.77;;
14209;SDS011;7188;56.070;12.698;2023-07-28T02:34:58;4.77;;;4.20;;
14209;SDS011;7188;56.070;12.698;2023-07-28T02:37:24;4.40;;;4.10;;
14209;SDS011;7188;56.070;12.698;2023-07-28T02:39:50;4.77;;;4.33;;
14209;SDS011;7188;56.070;12.698;2023-07-28T02:42:16;6.03;;;4.40;;
14209;SDS011;7188;56.070;12.698;2023-07-28T02:44:42;4.17;;;3.87;;
14209;SDS011;7188;56.070;12.698;2023-07-28T02:47:08;4.67;;;4.03;;
14209;SDS011;7188;56.070;12.698;2023-07-28T02:49:33;4.70;;;4.20;;
14209;SDS011;7188;56.070;12.698;2023-07-28T02:51:59;4.30;;;3.90;;
14209;SDS011;7188;56.070;12.698;2023-07-28T02:54:24;4.60;;;4.20;;
14209;SDS011;7188;56.070;12.698;2023-07-28T02:56:50;4.57;;;4.17;;
14209;SDS011;7188;56.070;12.698;2023-07-28T02:59:16;4.00;;;3.70;;
14209;SDS011;7188;56.070;12.698;2023-07-28T03:01:42;5.83;;;5.33;;
14209;SDS011;7188;56.070;12.698;2023-07-28T03:04:08;5.30;;;4.87;;
14209;SDS011;7188;56.070;12.698;2023-07-28T03:06:34;4.63;;;4.23;;
14209;SDS011;7188;56.070;12.698;2023-07-28T03:08:59;6.37;;;4.33;;
14209;SDS011;7188;56.070;12.698;2023-07-28T03:11:25;4.80;;;4.30;;
14209;SDS011;7188;56.070;12.698;2023-07-28T03:13:51;5.10;;;4.23;;
14209;SDS011;7188;56.070;12.698;2023-07-28T03:16:16;4.97;;;3.93;;
14209;SDS011;7188;56.070;12.698;2023-07-28T03:18:42;4.07;;;3.77;;
14209;SDS011;7188;56.070;12.698;2023-07-28T03:21:10;3.80;;;3.50;;
14209;SDS011;7188;56.070;12.698;2023-07-28T03:23:36;4.27;;;3.87;;
14209;SDS011;7188;56.070;12.698;2023-07-28T03:26:02;4.23;;;3.80;;
14209;SDS011;7188;56.070;12.698;2023-07-28T03:28:27;4.50;;;4.10;;
14209;SDS011;7188;56.070;12.698;2023-07-28T03:30:53;4.27;;;3.87;;
14209;SDS011;7188;56.070;12.698;2023-07-28T03:33:19;4.83;;;4.33;;
14209;SDS011;7188;56.070;12.698;2023-07-28T03:35:44;4.50;;;4.10;;
14209;SDS011;7188;56.070;12.698;2023-07-28T03:38:10;4.47;;;4.07;;
14209;SDS011;7188;56.070;12.698;2023-07-28T03:40:36;4.53;;;4.13;;
14209;SDS011;7188;56.070;12.698;2023-07-28T03:43:13;4.20;;;3.53;;
14209;SDS011;7188;56.070;12.698;2023-07-28T03:45:39;3.40;;;3.20;;
14209;SDS011;7188;56.070;12.698;2023-07-28T03:48:05;4.70;;;3.97;;
14209;SDS011;7188;56.070;12.698;2023-07-28T03:50:30;4.10;;;3.80;;
14209;SDS011;7188;56.070;12.698;2023-07-28T03:52:56;3.63;;;3.37;;
14209;SDS011;7188;56.070;12.698;2023-07-28T03:55:22;3.37;;;3.07;;
14209;SDS011;7188;56.070;12.698;2023-07-28T03:57:47;4.07;;;3.40;;
14209;SDS011;7188;56.070;12.698;2023-07-28T04:00:13;4.33;;;3.93;;
14209;SDS011;7188;56.070;12.698;2023-07-28T04:02:39;3.80;;;3.50;;
14209;SDS011;7188;56.070;12.698;2023-07-28T04:05:04;6.93;;;4.17;;
14209;SDS011;7188;56.070;12.698;2023-07-28T04:07:30;4.57;;;3.37;;
14209;SDS011;7188;56.070;12.698;2023-07-28T04:09:56;4.43;;;4.03;;
14209;SDS011;7188;56.070;12.698;2023-07-28T04:12:21;6.97;;;4.23;;
14209;SDS011;7188;56.070;12.698;2023-07-28T04:14:47;6.27;;;4.13;;
14209;SDS011;7188;56.070;12.698;2023-07-28T04:17:13;4.73;;;4.33;;
14209;SDS011;7188;56.070;12.698;2023-07-28T04:19:38;4.03;;;3.73;;
14209;SDS011;7188;56.070;12.698;2023-07-28T04:22:04;4.93;;;3.90;;
14209;SDS011;7188;56.070;12.698;2023-07-28T04:24:30;4.57;;;3.97;;
14209;SDS011;7188;56.070;12.698;2023-07-28T04:26:55;4.63;;;3.80;;
14209;SDS011;7188;56.070;12.698;2023-07-28T04:29:21;4.47;;;4.07;;
14209;SDS011;7188;56.070;12.698;2023-07-28T04:31:47;5.40;;;4.87;;
14209;SDS011;7188;56.070;12.698;2023-07-28T04:34:25;5.90;;;4.90;;
14209;SDS011;7188;56.070;12.698;2023-07-28T04:36:51;6.20;;;4.50;;
14209;SDS011;7188;56.070;12.698;2023-07-28T04:39:17;5.20;;;4.57;;
14209;SDS011;7188;56.070;12.698;2023-07-28T04:41:43;4.73;;;4.27;;
14209;SDS011;7188;56.070;12.698;2023-07-28T04:44:08;6.37;;;5.03;;
14209;SDS011;7188;56.070;12.698;2023-07-28T04:46:34;5.20;;;4.30;;
14209;SDS011;7188;56.070;12.698;2023-07-28T04:48:59;4.63;;;4.23;;
14209;SDS011;7188;56.070;12.698;2023-07-28T04:51:27;4.03;;;3.63;;
14209;SDS011;7188;56.070;12.698;2023-07-28T04:53:53;5.03;;;4.10;;
14209;SDS011;7188;56.070;12.698;2023-07-28T04:56:18;4.87;;;4.37;;
14209;SDS011;7188;56.070;12.698;2023-07-28T04:58:44;4.97;;;4.47;;
14209;SDS011;7188;56.070;12.698;2023-07-28T05:01:10;4.60;;;4.20;;
14209;SDS011;7188;56.070;12.698;2023-07-28T05:03:37;5.67;;;5.17;;
14209;SDS011;7188;56.070;12.698;2023-07-28T05:06:03;5.37;;;4.53;;
14209;SDS011;7188;56.070;12.698;2023-07-28T05:08:30;4.87;;;4.37;;
14209;SDS011;7188;56.070;12.698;2023-07-28T05:10:56;4.50;;;4.10;;
14209;SDS011;7188;56.070;12.698;2023-07-28T05:13:21;4.30;;;3.93;;
14209;SDS011;7188;56.070;12.698;2023-07-28T05:15:47;4.65;;;4.22;;
14209;SDS011;7188;56.070;12.698;2023-07-28T05:18:13;6.85;;;4.38;;
14209;SDS011;7188;56.070;12.698;2023-07-28T05:20:38;4.50;;;4.00;;
14209;SDS011;7188;56.070;12.698;2023-07-28T05:23:04;4.07;;;3.63;;
14209;SDS011;7188;56.070;12.698;2023-07-28T05:25:29;4.13;;;3.83;;
14209;SDS011;7188;56.070;12.698;2023-07-28T05:27:55;5.20;;;3.50;;
14209;SDS011;7188;56.070;12.698;2023-07-28T05:30:21;4.40;;;3.47;;
14209;SDS011;7188;56.070;12.698;2023-07-28T05:32:47;5.10;;;4.05;;
14209;SDS011;7188;56.070;12.698;2023-07-28T05:35:13;4.32;;;3.95;;
14209;SDS011;7188;56.070;12.698;2023-07-28T05:37:40;3.60;;;3.30;;
14209;SDS011;7188;56.070;12.698;2023-07-28T05:40:06;5.15;;;4.13;;
14209;SDS011;7188;56.070;12.698;2023-07-28T05:42:32;3.25;;;2.95;;
14209;SDS011;7188;56.070;12.698;2023-07-28T05:45:07;4.90;;;4.05;;
14209;SDS011;7188;56.070;12.698;2023-07-28T05:47:33;6.70;;;4.10;;
14209;SDS011;7188;56.070;12.698;2023-07-28T05:49:59;4.78;;;4.38;;
14209;SDS011;7188;56.070;12.698;2023-07-28T05:52:25;5.05;;;4.55;;
14209;SDS011;7188;56.070;12.698;2023-07-28T05:54:50;5.95;;;4.07;;
14209;SDS011;7188;56.070;12.698;2023-07-28T05:57:16;4.82;;;4.40;;
14209;SDS011;7188;56.070;12.698;2023-07-28T05:59:42;4.72;;;4.22;;
14209;SDS011;7188;56.070;12.698;2023-07-28T06:02:07;6.60;;;4.20;;
14209;SDS011;7188;56.070;12.698;2023-07-28T06:04:33;5.80;;;4.78;;
14209;SDS011;7188;56.070;12.698;2023-07-28T06:06:58;7.30;;;4.75;;
14209;SDS011;7188;56.070;12.698;2023-07-28T06:09:24;6.68;;;4.63;;
14209;SDS011;7188;56.070;12.698;2023-07-28T06:11:50;7.32;;;5.03;;
14209;SDS011;7188;56.070;12.698;2023-07-28T06:14:15;6.40;;;5.75;;
14209;SDS011;7188;56.070;12.698;2023-07-28T06:16:41;8.25;;;5.20;;
14209;SDS011;7188;56.070;12.698;2023-07-28T06:19:07;6.38;;;5.43;;
14209;SDS011;7188;56.070;12.698;2023-07-28T06:21:33;6.90;;;5.22;;
14209;SDS011;7188;56.070;12.698;2023-07-28T06:23:59;6.30;;;5.05;;
14209;SDS011;7188;56.070;12.698;2023-07-28T06:26:25;7.43;;;6.10;;
14209;SDS011;7188;56.070;12.698;2023-07-28T06:28:50;6.45;;;4.93;;
14209;SDS011;7188;56.070;12.698;2023-07-28T06:31:16;5.55;;;4.93;;
14209;SDS011;7188;56.070;12.698;2023-07-28T06:33:41;6.00;;;5.40;;
14209;SDS011;7188;56.070;12.698;2023-07-28T06:36:07;5.00;;;4.45;;
14209;SDS011;7188;56.070;12.698;2023-07-28T06:38:33;6.13;;;5.45;;
14209;SDS011;7188;56.070;12.698;2023-07-28T06:40:58;5.05;;;4.53;;
14209;SDS011;7188;56.070;12.698;2023-07-28T06:43:25;9.02;;;5.53;;
14209;SDS011;7188;56.070;12.698;2023-07-28T06:45:52;7.40;;;5.07;;
14209;SDS011;7188;56.070;12.698;2023-07-28T06:48:18;9.57;;;5.28;;
14209;SDS011;7188;56.070;12.698;2023-07-28T06:50:44;8.60;;;5.35;;
14209;SDS011;7188;56.070;12.698;2023-07-28T06:53:09;5.20;;;4.30;;
14209;SDS011;7188;56.070;12.698;2023-07-28T06:55:35;7.18;;;4.45;;
14209;SDS011;7188;56.070;12.698;2023-07-28T06:58:03;10.43;;;4.88;;
14209;SDS011;7188;56.070;12.698;2023-07-28T07:00:30;7.55;;;4.68;;
14209;SDS011;7188;56.070;12.698;2023-07-28T07:02:56;5.30;;;4.05;;
14209;SDS011;7188;56.070;12.698;2023-07-28T07:05:22;4.53;;;3.92;;
14209;SDS011;7188;56.070;12.698;2023-07-28T07:07:48;4.10;;;3.78;;
14209;SDS011;7188;56.070;12.698;2023-07-28T07:10:14;5.07;;;3.50;;
14209;SDS011;7188;56.070;12.698;2023-07-28T07:12:40;4.40;;;3.63;;
14209;SDS011;7188;56.070;12.698;2023-07-28T07:15:06;5.00;;;3.90;;
14209;SDS011;7188;56.070;12.698;2023-07-28T07:17:32;9.95;;;3.72;;
14209;SDS011;7188;56.070;12.698;2023-07-28T07:20:07;4.88;;;3.58;;
14209;SDS011;7188;56.070;12.698;2023-07-28T07:22:33;5.25;;;3.42;;
14209;SDS011;7188;56.070;12.698;2023-07-28T07:24:59;3.88;;;3.58;;
14209;SDS011;7188;56.070;12.698;2023-07-28T07:27:25;5.65;;;3.08;;
14209;SDS011;7188;56.070;12.698;2023-07-28T07:29:51;3.03;;;2.72;;
14209;SDS011;7188;56.070;12.698;2023-07-28T07:32:17;4.20;;;3.25;;
14209;SDS011;7188;56.070;12.698;2023-07-28T07:34:43;4.88;;;3.95;;
14209;SDS011;7188;56.070;12.698;2023-07-28T07:37:09;3.35;;;3.05;;
14209;SDS011;7188;56.070;12.698;2023-07-28T07:39:34;3.10;;;2.80;;
14209;SDS011;7188;56.070;12.698;2023-07-28T07:42:01;4.15;;;2.70;;
14209;SDS011;7188;56.070;12.698;2023-07-28T07:44:27;3.45;;;2.90;;
14209;SDS011;7188;56.070;12.698;2023-07-28T07:46:52;2.53;;;2.38;;
14209;SDS011;7188;56.070;12.698;2023-07-28T07:49:18;3.25;;;2.90;;
14209;SDS011;7188;56.070;12.698;2023-07-28T07:51:44;2.67;;;2.47;;
14209;SDS011;7188;56.070;12.698;2023-07-28T07:54:09;3.22;;;2.50;;
14209;SDS011;7188;56.070;12.698;2023-07-28T07:56:35;2.63;;;2.45;;
14209;SDS011;7188;56.070;12.698;2023-07-28T07:59:01;2.50;;;2.15;;
14209;SDS011;7188;56.070;12.698;2023-07-28T08:01:26;5.50;;;2.53;;
14209;SDS011;7188;56.070;12.698;2023-07-28T08:03:52;2.70;;;2.50;;
14209;SDS011;7188;56.070;12.698;2023-07-28T08:06:18;3.22;;;2.85;;
14209;SDS011;7188;56.070;12.698;2023-07-28T08:08:43;3.30;;;2.28;;
14209;SDS011;7188;56.070;12.698;2023-07-28T08:11:10;4.63;;;2.70;;
14209;SDS011;7188;56.070;12.698;2023-07-28T08:13:36;3.63;;;3.20;;
14209;SDS011;7188;56.070;12.698;2023-07-28T08:16:02;4.35;;;3.03;;
14209;SDS011;7188;56.070;12.698;2023-07-28T08:18:28;4.07;;;3.67;;
14209;SDS011;7188;56.070;12.698;2023-07-28T08:20:54;3.83;;;2.90;;
14209;SDS011;7188;56.070;12.698;2023-07-28T08:23:19;3.75;;;2.97;;
14209;SDS011;7188;56.070;12.698;2023-07-28T08:25:45;4.45;;;3.42;;
14209;SDS011;7188;56.070;12.698;2023-07-28T08:28:10;4.32;;;3.50;;
14209;SDS011;7188;56.070;12.698;2023-07-28T08:30:36;4.13;;;3.72;;
14209;SDS011;7188;56.070;12.698;2023-07-28T08:33:02;5.90;;;3.97;;
14209;SDS011;7188;56.070;12.698;2023-07-28T08:35:28;7.93;;;3.58;;
14209;SDS011;7188;56.070;12.698;2023-07-28T08:37:54;4.50;;;3.25;;
14209;SDS011;7188;56.070;12.698;2023-07-28T08:40:19;5.70;;;3.75;;
14209;SDS011;7188;56.070;12.698;2023-07-28T08:42:45;5.18;;;3.70;;
14209;SDS011;7188;56.070;12.698;2023-07-28T08:45:11;4.07;;;3.38;;
14209;SDS011;7188;56.070;12.698;2023-07-28T08:47:38;4.25;;;3.38;;
14209;SDS011;7188;56.070;12.698;2023-07-28T08:50:04;4.00;;;3.40;;
14209;SDS011;7188;56.070;12.698;2023-07-28T08:52:31;4.40;;;3.50;;
14209;SDS011;7188;56.070;12.698;2023-07-28T08:54:57;5.85;;;2.83;;
14209;SDS011;7188;56.070;12.698;2023-07-28T08:57:22;4.57;;;2.83;;
14209;SDS011;7188;56.070;12.698;2023-07-28T08:59:48;2.83;;;2.63;;
14209;SDS011;7188;56.070;12.698;2023-07-28T09:02:15;4.32;;;3.35;;
14209;SDS011;7188;56.070;12.698;2023-07-28T09:04:42;4.88;;;3.25;;
14209;SDS011;7188;56.070;12.698;2023-07-28T09:07:08;4.07;;;3.00;;
14209;SDS011;7188;56.070;12.698;2023-07-28T09:09:34;5.60;;;3.13;;
14209;SDS011;7188;56.070;12.698;2023-07-28T09:12:01;6.68;;;3.50;;
14209;SDS011;7188;56.070;12.698;2023-07-28T09:14:28;2.45;;;2.15;;
14209;SDS011;7188;56.070;12.698;2023-07-28T09:16:54;2.72;;;2.38;;
14209;SDS011;7188;56.070;12.698;2023-07-28T09:19:20;4.32;;;2.92;;
14209;SDS011;7188;56.070;12.698;2023-07-28T09:21:56;2.20;;;2.10;;
14209;SDS011;7188;56.070;12.698;2023-07-28T09:24:28;4.13;;;2.85;;
14209;SDS011;7188;56.070;12.698;2023-07-28T09:26:59;3.03;;;2.42;;
14209;SDS011;7188;56.070;12.698;2023-07-28T09:29:26;3.72;;;3.00;;
14209;SDS011;7188;56.070;12.698;2023-07-28T09:32:02;2.25;;;2.15;;
14209;SDS011;7188;56.070;12.698;2023-07-28T09:34:29;4.25;;;2.80;;
14209;SDS011;7188;56.070;12.698;2023-07-28T09:36:59;2.58;;;2.20;;
14209;SDS011;7188;56.070;12.698;2023-07-28T09:39:26;2.67;;;2.47;;
14209;SDS011;7188;56.070;12.698;2023-07-28T09:41:53;2.70;;;2.50;;
14209;SDS011;7188;56.070;12.698;2023-07-28T09:44:22;2.85;;;2.50;;
14209;SDS011;7188;56.070;12.698;2023-07-28T09:46:52;4.57;;;2.88;;
14209;SDS011;7188;56.070;12.698;2023-07-28T09:49:20;6.10;;;2.55;;
14209;SDS011;7188;56.070;12.698;2023-07-28T09:51:53;2.58;;;2.38;;
14209;SDS011;7188;56.070;12.698;2023-07-28T09:54:27;3.67;;;2.50;;
14209;SDS011;7188;56.070;12.698;2023-07-28T09:56:58;3.58;;;2.47;;
14209;SDS011;7188;56.070;12.698;2023-07-28T09:59:28;2.83;;;2.63;;
14209;SDS011;7188;56.070;12.698;2023-07-28T10:01:57;2.55;;;2.20;;
14209;SDS011;7188;56.070;12.698;2023-07-28T10:04:23;2.92;;;2.65;;
14209;SDS011;7188;56.070;12.698;2023-07-28T10:06:49;2.90;;;2.28;;
14209;SDS011;7188;56.070;12.698;2023-07-28T10:09:21;2.40;;;2.17;;
14209;SDS011;7188;56.070;12.698;2023-07-28T10:11:51;2.78;;;2.38;;
14209;SDS011;7188;56.070;12.698;2023-07-28T10:14:27;3.80;;;2.60;;
14209;SDS011;7188;56.070;12.698;2023-07-28T10:16:54;3.38;;;2.47;;
14209;SDS011;7188;56.070;12.698;2023-07-28T10:19:21;4.28;;;2.88;;
14209;SDS011;7188;56.070;12.698;2023-07-28T10:21:47;3.58;;;3.00;;
14209;SDS011;7188;56.070;12.698;2023-07-28T10:24:12;4.65;;;2.10;;
14209;SDS011;7188;56.070;12.698;2023-07-28T10:26:40;2.53;;;2.28;;
14209;SDS011;7188;56.070;12.698;2023-07-28T10:29:13;3.25;;;2.95;;
14209;SDS011;7188;56.070;12.698;2023-07-28T10:31:53;4.07;;;3.30;;
14209;SDS011;7188;56.070;12.698;2023-07-28T10:34:21;3.58;;;2.58;;
14209;SDS011;7188;56.070;12.698;2023-07-28T10:36:49;3.33;;;2.85;;
14209;SDS011;7188;56.070;12.698;2023-07-28T10:39:26;2.75;;;2.50;;
14209;SDS011;7188;56.070;12.698;2023-07-28T10:42:03;3.05;;;2.40;;
14209;SDS011;7188;56.070;12.698;2023-07-28T10:44:30;3.78;;;2.70;;
14209;SDS011;7188;56.070;12.698;2023-07-28T10:46:56;2.53;;;2.10;;
14209;SDS011;7188;56.070;12.698;2023-07-28T10:49:24;4.43;;;3.30;;
14209;SDS011;7188;56.070;12.698;2023-07-28T10:51:50;5.10;;;2.50;;
14209;SDS011;7188;56.070;12.698;2023-07-28T10:54:16;3.65;;;2.60;;
14209;SDS011;7188;56.070;12.698;2023-07-28T10:56:44;4.80;;;2.88;;
14209;SDS011;7188;56.070;12.698;2023-07-28T10:59:13;3.72;;;2.83;;
14209;SDS011;7188;56.070;12.698;2023-07-28T11:01:41;4.80;;;2.60;;
14209;SDS011;7188;56.070;12.698;2023-07-28T11:04:14;15.80;;;5.25;;
14209;SDS011;7188;56.070;12.698;2023-07-28T11:06:45;5.95;;;2.45;;
14209;SDS011;7188;56.070;12.698;2023-07-28T11:09:13;3.28;;;2.38;;
14209;SDS011;7188;56.070;12.698;2023-07-28T11:11:40;5.57;;;3.05;;
14209;SDS011;7188;56.070;12.698;2023-07-28T11:14:06;3.55;;;2.60;;
14209;SDS011;7188;56.070;12.698;2023-07-28T11:16:36;3.63;;;2.03;;
14209;SDS011;7188;56.070;12.698;2023-07-28T11:19:10;1.83;;;1.70;;
14209;SDS011;7188;56.070;12.698;2023-07-28T11:21:40;3.65;;;2.17;;
14209;SDS011;7188;56.070;12.698;2023-07-28T11:24:07;2.47;;;1.63;;
14209;SDS011;7188;56.070;12.698;2023-07-28T11:26:37;2.00;;;1.80;;
14209;SDS011;7188;56.070;12.698;2023-07-28T11:29:03;1.92;;;1.70;;
14209;SDS011;7188;56.070;12.698;2023-07-28T11:31:30;2.50;;;1.55;;
14209;SDS011;7188;56.070;12.698;2023-07-28T11:33:57;2.05;;;1.65;;
14209;SDS011;7188;56.070;12.698;2023-07-28T11:36:24;1.50;;;1.40;;
14209;SDS011;7188;56.070;12.698;2023-07-28T11:38:54;2.50;;;1.58;;
14209;SDS011;7188;56.070;12.698;2023-07-28T11:41:22;4.30;;;3.28;;
14209;SDS011;7188;56.070;12.698;2023-07-28T11:43:48;8.82;;;6.88;;
14209;SDS011;7188;56.070;12.698;2023-07-28T11:46:36;3.20;;;2.08;;
14209;SDS011;7188;56.070;12.698;2023-07-28T11:49:15;2.85;;;2.58;;
14209;SDS011;7188;56.070;12.698;2023-07-28T11:51:48;4.55;;;2.22;;
14209;SDS011;7188;56.070;12.698;2023-07-28T11:54:15;1.83;;;1.60;;
14209;SDS011;7188;56.070;12.698;2023-07-28T11:56:45;4.07;;;1.60;;
14209;SDS011;7188;56.070;12.698;2023-07-28T11:59:11;3.05;;;1.77;;
14209;SDS011;7188;56.070;12.698;2023-07-28T12:01:52;1.63;;;1.52;;
14209;SDS011;7188;56.070;12.698;2023-07-28T12:04:28;2.70;;;1.70;;
14209;SDS011;7188;56.070;12.698;2023-07-28T12:07:08;4.30;;;2.15;;
14209;SDS011;7188;56.070;12.698;2023-07-28T12:12:16;3.25;;;1.63;;
14209;SDS011;7188;56.070;12.698;2023-07-28T12:14:48;2.40;;;2.05;;
14209;SDS011;7188;56.070;12.698;2023-07-28T12:17:20;3.03;;;2.47;;
14209;SDS011;7188;56.070;12.698;2023-07-28T12:20:01;5.20;;;1.98;;
14209;SDS011;7188;56.070;12.698;2023-07-28T12:22:35;2.90;;;2.42;;
14209;SDS011;7188;56.070;12.698;2023-07-28T12:25:05;4.72;;;2.13;;
14209;SDS011;7188;56.070;12.698;2023-07-28T12:27:31;2.25;;;1.58;;
14209;SDS011;7188;56.070;12.698;2023-07-28T12:29:57;1.98;;;1.67;;
14209;SDS011;7188;56.070;12.698;2023-07-28T12:32:23;3.05;;;2.22;;
14209;SDS011;7188;56.070;12.698;2023-07-28T12:34:49;2.28;;;2.08;;
14209;SDS011;7188;56.070;12.698;2023-07-28T12:37:16;1.58;;;1.38;;
14209;SDS011;7188;56.070;12.698;2023-07-28T12:39:42;2.28;;;1.70;;
14209;SDS011;7188;56.070;12.698;2023-07-28T12:42:09;3.03;;;1.40;;
14209;SDS011;7188;56.070;12.698;2023-07-28T12:44:36;1.80;;;1.70;;
14209;SDS011;7188;56.070;12.698;2023-07-28T12:47:02;1.95;;;1.30;;
14209;SDS011;7188;56.070;12.698;2023-07-28T12:49:28;1.60;;;1.42;;
14209;SDS011;7188;56.070;12.698;2023-07-28T12:51:58;1.92;;;1.27;;
14209;SDS011;7188;56.070;12.698;2023-07-28T12:54:24;1.92;;;1.40;;
14209;SDS011;7188;56.070;12.698;2023-07-28T12:56:51;1.38;;;1.27;;
14209;SDS011;7188;56.070;12.698;2023-07-28T12:59:17;3.10;;;1.40;;
14209;SDS011;7188;56.070;12.698;2023-07-28T13:01:42;3.33;;;1.50;;
14209;SDS011;7188;56.070;12.698;2023-07-28T13:04:08;1.50;;;1.40;;
14209;SDS011;7188;56.070;12.698;2023-07-28T13:06:34;3.63;;;1.20;;
14209;SDS011;7188;56.070;12.698;2023-07-28T13:08:59;1.75;;;1.40;;
14209;SDS011;7188;56.070;12.698;2023-07-28T13:11:25;3.17;;;1.33;;
14209;SDS011;7188;56.070;12.698;2023-07-28T13:13:50;1.75;;;1.42;;
14209;SDS011;7188;56.070;12.698;2023-07-28T13:16:16;1.90;;;1.75;;
14209;SDS011;7188;56.070;12.698;2023-07-28T13:18:42;2.45;;;1.50;;
14209;SDS011;7188;56.070;12.698;2023-07-28T13:21:08;3.53;;;1.83;;
14209;SDS011;7188;56.070;12.698;2023-07-28T13:23:37;2.20;;;1.38;;
14209;SDS011;7188;56.070;12.698;2023-07-28T13:26:04;2.72;;;1.30;;
14209;SDS011;7188;56.070;12.698;2023-07-28T13:28:29;2.28;;;1.55;;
14209;SDS011;7188;56.070;12.698;2023-07-28T13:30:55;1.40;;;1.30;;
14209;SDS011;7188;56.070;12.698;2023-07-28T13:33:21;1.80;;;1.30;;
14209;SDS011;7188;56.070;12.698;2023-07-28T13:35:47;1.27;;;1.20;;
14209;SDS011;7188;56.070;12.698;2023-07-28T13:38:13;1.85;;;1.35;;
14209;SDS011;7188;56.070;12.698;2023-07-28T13:40:38;2.10;;;1.48;;
14209;SDS011;7188;56.070;12.698;2023-07-28T13:43:04;2.53;;;1.27;;
14209;SDS011;7188;56.070;12.698;2023-07-28T13:45:30;1.73;;;1.50;;
14209;SDS011;7188;56.070;12.698;2023-07-28T13:47:55;4.78;;;1.30;;
14209;SDS011;7188;56.070;12.698;2023-07-28T13:50:21;2.25;;;1.50;;
14209;SDS011;7188;56.070;12.698;2023-07-28T13:52:48;1.75;;;1.40;;
14209;SDS011;7188;56.070;12.698;2023-07-28T13:55:14;2.03;;;1.38;;
14209;SDS011;7188;56.070;12.698;2023-07-28T13:57:40;1.30;;;1.20;;
14209;SDS011;7188;56.070;12.698;2023-07-28T14:00:06;2.13;;;1.67;;
14209;SDS011;7188;56.070;12.698;2023-07-28T14:02:36;1.40;;;1.08;;
14209;SDS011;7188;56.070;12.698;2023-07-28T14:05:02;3.40;;;1.40;;
14209;SDS011;7188;56.070;12.698;2023-07-28T14:07:28;2.05;;;1.52;;
14209;SDS011;7188;56.070;12.698;2023-07-28T14:09:53;1.92;;;1.30;;
14209;SDS011;7188;56.070;12.698;2023-07-28T14:12:19;2.35;;;1.25;;
14209;SDS011;7188;56.070;12.698;2023-07-28T14:14:45;1.58;;;1.40;;
14209;SDS011;7188;56.070;12.698;2023-07-28T14:17:10;2.25;;;1.40;;
14209;SDS011;7188;56.070;12.698;2023-07-28T14:19:37;2.00;;;1.52;;
14209;SDS011;7188;56.070;12.698;2023-07-28T14:22:03;1.42;;;1.20;;
14209;SDS011;7188;56.070;12.698;2023-07-28T14:24:29;2.17;;;1.35;;
14209;SDS011;7188;56.070;12.698;2023-07-28T14:26:55;2.15;;;1.30;;
14209;SDS011;7188;56.070;12.698;2023-07-28T14:29:20;2.55;;;1.15;;
14209;SDS011;7188;56.070;12.698;2023-07-28T14:32:10;1.23;;;1.20;;
14209;SDS011;7188;56.070;12.698;2023-07-28T14:34:36;1.42;;;1.17;;
14209;SDS011;7188;56.070;12.698;2023-07-28T14:37:03;1.48;;;1.15;;
14209;SDS011;7188;56.070;12.698;2023-07-28T14:39:33;1.17;;;1.10;;
14209;SDS011;7188;56.070;12.698;2023-07-28T14:41:59;1.33;;;1.20;;
14209;SDS011;7188;56.070;12.698;2023-07-28T14:44:24;1.35;;;1.20;;
14209;SDS011;7188;56.070;12.698;2023-07-28T14:46:50;2.45;;;1.30;;
14209;SDS011;7188;56.070;12.698;2023-07-28T14:49:16;1.73;;;1.30;;
14209;SDS011;7188;56.070;12.698;2023-07-28T14:51:41;2.35;;;1.27;;